createdAt,value
2023-11-12T00:01:07.572Z,3.62
2023-11-12T00:04:15.847Z,3.67
2023-11-12T00:07:25.717Z,3.70
2023-11-12T00:10:36.055Z,3.65
2023-11-12T00:13:43.350Z,3.63
2023-11-12T00:16:51.578Z,3.54
2023-11-12T00:20:00.841Z,3.72
2023-11-12T00:23:13.953Z,3.77
2023-11-12T00:26:22.775Z,3.76
2023-11-12T00:29:35.439Z,3.79
2023-11-12T00:32:42.741Z,3.79
2023-11-12T00:35:51.010Z,3.72
2023-11-12T00:39:00.837Z,3.72
2023-11-12T00:42:29.250Z,3.72
2023-11-12T00:45:36.522Z,3.73
2023-11-12T00:48:45.679Z,3.69
2023-11-12T00:51:53.074Z,3.67
2023-11-12T00:55:03.802Z,3.58
2023-11-12T00:58:11.360Z,3.59
2023-11-12T01:01:36.921Z,3.64
2023-11-12T01:04:44.401Z,3.65
2023-11-12T01:07:53.631Z,3.69
2023-11-12T01:11:03.658Z,3.55
2023-11-12T01:14:18.326Z,3.48
2023-11-12T01:17:25.902Z,3.46
2023-11-12T01:20:54.031Z,3.32
2023-11-12T01:24:04.745Z,3.34
2023-11-12T01:27:23.115Z,3.38
2023-11-12T01:30:32.966Z,3.21
2023-11-12T01:33:41.236Z,3.22
2023-11-12T01:36:48.524Z,3.35
2023-11-12T01:39:56.849Z,3.18
2023-11-12T01:43:06.785Z,3.09
2023-11-12T01:46:15.397Z,2.99
2023-11-12T01:49:25.083Z,2.97
2023-11-12T01:52:34.322Z,3.00
2023-11-12T01:55:42.168Z,3.04
2023-11-12T01:58:56.698Z,3.07
2023-11-12T02:02:04.640Z,3.06
2023-11-12T02:05:13.051Z,3.04
2023-11-12T02:08:23.454Z,3.04
2023-11-12T02:11:32.016Z,2.98
2023-11-12T02:14:41.962Z,2.81
2023-11-12T02:17:50.572Z,2.85
2023-11-12T02:20:58.224Z,2.94
2023-11-12T02:24:10.694Z,2.85
2023-11-12T02:27:18.186Z,2.91
2023-11-12T02:30:27.711Z,2.91
2023-11-12T02:33:35.688Z,2.92
2023-11-12T02:36:43.726Z,2.77
2023-11-12T02:40:01.050Z,2.79
2023-11-12T02:43:11.343Z,2.69
2023-11-12T02:46:19.412Z,2.73
2023-11-12T02:49:48.415Z,2.86
2023-11-12T02:52:59.463Z,2.93
2023-11-12T02:56:10.426Z,3.02
2023-11-12T02:59:18.440Z,2.98
2023-11-12T03:02:26.350Z,3.01
2023-11-12T03:05:35.753Z,2.94
2023-11-12T03:08:45.837Z,2.89
2023-11-12T03:11:57.184Z,3.00
2023-11-12T03:15:05.885Z,2.91
2023-11-12T03:18:14.071Z,3.00
2023-11-12T03:21:21.442Z,2.95
2023-11-12T03:24:29.577Z,2.95
2023-11-12T03:27:40.243Z,2.95
2023-11-12T03:30:48.625Z,2.93
2023-11-12T03:33:55.916Z,2.83
2023-11-12T03:37:04.083Z,2.80
2023-11-12T03:40:13.609Z,2.74
2023-11-12T03:43:24.206Z,2.67
2023-11-12T03:46:31.688Z,2.75
2023-11-12T03:49:46.048Z,2.70
2023-11-12T03:52:53.313Z,2.75
2023-11-12T03:56:01.320Z,2.71
2023-11-12T03:59:11.120Z,2.64
2023-11-12T04:02:19.865Z,2.59
2023-11-12T04:05:27.115Z,2.62
2023-11-12T04:08:35.177Z,2.67
2023-11-12T04:11:43.316Z,2.63
2023-11-12T04:14:54.316Z,2.71
2023-11-12T04:18:01.769Z,2.61
2023-11-12T04:21:09.959Z,2.67
2023-11-12T04:24:35.670Z,2.65
2023-11-12T04:27:43.808Z,2.74
2023-11-12T04:30:53.714Z,2.71
2023-11-12T04:34:02.164Z,2.65
2023-11-12T04:37:09.887Z,2.60
2023-11-12T04:40:37.048Z,2.65
2023-11-12T04:43:50.296Z,2.68
2023-11-12T04:47:01.081Z,2.69
2023-11-12T04:50:28.030Z,2.70
2023-11-12T04:53:56.536Z,2.81
2023-11-12T04:57:05.327Z,2.67
2023-11-12T05:00:15.126Z,2.80
2023-11-12T05:03:24.988Z,2.88
2023-11-12T05:06:33.181Z,2.86
2023-11-12T05:09:41.430Z,2.85
2023-11-12T05:12:49.619Z,2.82
2023-11-12T05:15:58.190Z,2.79
2023-11-12T05:19:09.086Z,2.73
2023-11-12T05:22:16.257Z,2.75
2023-11-12T05:25:24.565Z,2.93
2023-11-12T05:28:32.010Z,2.87
2023-11-12T05:31:40.300Z,2.81
2023-11-12T05:34:51.520Z,2.80
2023-11-12T05:37:59.613Z,2.80
2023-11-12T05:41:07.463Z,2.81
2023-11-12T05:44:15.466Z,2.76
2023-11-12T05:47:23.841Z,2.79
2023-11-12T05:50:41.596Z,2.96
2023-11-12T05:53:48.883Z,2.89
2023-11-12T05:56:57.117Z,2.99
2023-11-12T06:00:28.099Z,2.96
2023-11-12T06:03:57.242Z,2.95
2023-11-12T06:07:07.661Z,2.88
2023-11-12T06:10:31.064Z,2.92
2023-11-12T06:13:39.476Z,2.93
2023-11-12T06:16:47.522Z,3.02
2023-11-12T06:19:54.874Z,3.04
2023-11-12T06:23:18.104Z,3.01
2023-11-12T06:26:37.674Z,3.04
2023-11-12T06:29:45.821Z,2.97
2023-11-12T06:32:53.049Z,2.93
2023-11-12T06:36:01.127Z,2.96
2023-11-12T06:39:14.934Z,2.92
2023-11-12T06:42:25.019Z,3.01
2023-11-12T06:45:33.332Z,3.06
2023-11-12T06:48:41.433Z,3.01
2023-11-12T06:51:52.133Z,3.09
2023-11-12T06:55:05.824Z,3.11
2023-11-12T06:58:12.928Z,3.12
2023-11-12T07:01:20.942Z,3.11
2023-11-12T07:04:28.418Z,3.10
2023-11-12T07:07:36.552Z,3.15
2023-11-12T07:10:46.429Z,3.16
2023-11-12T07:13:54.504Z,3.23
2023-11-12T07:17:08.019Z,3.20
2023-11-12T07:20:41.240Z,3.22
2023-11-12T07:23:48.532Z,3.18
2023-11-12T07:26:59.245Z,3.17
2023-11-12T07:30:06.892Z,3.25
2023-11-12T07:33:15.022Z,3.34
2023-11-12T07:36:22.949Z,3.29
2023-11-12T07:39:31.169Z,3.26
2023-11-12T07:42:42.214Z,3.21
2023-11-12T07:45:50.564Z,3.15
2023-11-12T07:48:58.666Z,3.17
2023-11-12T07:52:07.374Z,3.13
2023-11-12T07:55:14.546Z,3.20
2023-11-12T07:58:25.314Z,3.15
2023-11-12T08:01:47.091Z,3.21
2023-11-12T08:05:15.465Z,3.28
2023-11-12T08:08:24.593Z,3.34
2023-11-12T08:11:32.778Z,3.41
2023-11-12T08:14:50.795Z,3.52
2023-11-12T08:18:00.995Z,3.52
2023-11-12T08:21:09.084Z,3.65
2023-11-12T08:24:17.506Z,3.74
2023-11-12T08:27:31.125Z,3.77
2023-11-12T08:30:59.384Z,3.81
2023-11-12T08:34:07.035Z,3.88
2023-11-12T08:37:15.443Z,3.92
2023-11-12T08:40:23.049Z,3.98
2023-11-12T08:43:31.219Z,3.93
2023-11-12T08:46:41.251Z,3.88
2023-11-12T08:49:49.425Z,3.95
2023-11-12T08:52:58.540Z,4.07
2023-11-12T08:56:07.780Z,4.34
2023-11-12T08:59:21.972Z,4.61
2023-11-12T09:02:39.103Z,4.92
2023-11-12T09:05:46.374Z,5.02
2023-11-12T09:08:54.577Z,5.02
2023-11-12T09:12:01.872Z,5.18
2023-11-12T09:15:12.719Z,5.56
2023-11-12T09:18:28.608Z,6.26
2023-11-12T09:21:36.949Z,6.67
2023-11-12T09:25:00.448Z,6.48
2023-11-12T09:28:15.491Z,6.40
2023-11-12T09:31:23.582Z,6.16
2023-11-12T09:34:35.873Z,6.16
2023-11-12T09:37:43.300Z,5.94
2023-11-12T09:40:59.826Z,5.67
2023-11-12T09:44:11.248Z,5.60
2023-11-12T09:47:46.757Z,5.68
2023-11-12T09:50:57.118Z,5.59
2023-11-12T09:54:06.840Z,5.56
2023-11-12T09:57:18.020Z,5.65
2023-11-12T10:00:26.323Z,5.59
2023-11-12T10:03:39.233Z,5.76
2023-11-12T10:06:51.727Z,6.05
2023-11-12T10:09:59.380Z,6.25
2023-11-12T10:13:26.081Z,6.41
2023-11-12T10:16:50.680Z,6.25
2023-11-12T10:20:00.630Z,6.48
2023-11-12T10:23:33.522Z,6.54
2023-11-12T10:27:09.300Z,6.58
2023-11-12T10:30:30.863Z,6.55
2023-11-12T10:33:58.115Z,6.39
2023-11-12T10:37:28.075Z,6.23
2023-11-12T10:41:13.377Z,6.24
2023-11-12T10:44:21.044Z,6.00
2023-11-12T10:47:31.739Z,5.95
2023-11-12T10:50:43.252Z,6.12
2023-11-12T10:54:09.530Z,6.16
2023-11-12T10:57:22.857Z,6.06
2023-11-12T11:00:31.683Z,6.04
2023-11-12T11:03:47.072Z,6.06
2023-11-12T11:07:11.123Z,5.85
2023-11-12T11:10:19.297Z,5.64
2023-11-12T11:13:44.196Z,5.63
2023-11-12T11:16:59.457Z,5.60
2023-11-12T11:20:13.617Z,5.61
2023-11-12T11:23:44.660Z,5.64
2023-11-12T11:27:16.518Z,5.54
2023-11-12T11:30:31.594Z,5.49
2023-11-12T11:33:52.793Z,5.56
2023-11-12T11:37:13.986Z,5.59
2023-11-12T11:40:38.014Z,5.54
2023-11-12T11:43:46.168Z,5.66
2023-11-12T11:47:28.098Z,5.61
2023-11-12T11:50:57.412Z,5.54
2023-11-12T11:54:09.166Z,5.66
2023-11-12T11:57:25.743Z,5.56
2023-11-12T12:00:33.956Z,5.51
2023-11-12T12:03:44.071Z,5.56
2023-11-12T12:06:52.947Z,5.54
2023-11-12T12:10:02.038Z,5.53
2023-11-12T12:13:16.680Z,5.51
2023-11-12T12:16:30.575Z,5.62
2023-11-12T12:19:41.894Z,5.65
2023-11-12T12:22:50.963Z,5.60
2023-11-12T12:26:00.759Z,5.62
2023-11-12T12:29:26.890Z,5.71
2023-11-12T12:32:47.201Z,5.72
2023-11-12T12:36:02.182Z,5.67
2023-11-12T12:39:31.247Z,5.69
2023-11-12T12:43:06.167Z,5.79
2023-11-12T12:46:16.809Z,5.66
2023-11-12T12:49:36.464Z,5.62
2023-11-12T12:52:49.347Z,5.60
2023-11-12T12:55:57.466Z,5.50
2023-11-12T12:59:05.547Z,5.50
2023-11-12T13:02:13.409Z,5.50
2023-11-12T13:05:26.998Z,5.48
2023-11-12T13:08:36.801Z,5.44
2023-11-12T13:11:50.181Z,5.50
2023-11-12T13:15:00.233Z,5.41
2023-11-12T13:18:08.871Z,5.55
2023-11-12T13:21:20.697Z,5.62
2023-11-12T13:24:31.526Z,5.63
2023-11-12T13:27:43.578Z,5.62
2023-11-12T13:30:54.664Z,5.68
2023-11-12T13:34:03.671Z,5.66
2023-11-12T13:37:12.144Z,5.63
2023-11-12T13:40:32.482Z,5.53
2023-11-12T13:43:44.823Z,5.30
2023-11-12T13:46:54.829Z,5.19
2023-11-12T13:50:11.131Z,5.24
2023-11-12T13:53:37.501Z,5.36
2023-11-12T13:56:49.245Z,5.49
2023-11-12T14:00:00.412Z,5.47
2023-11-12T14:03:14.865Z,5.38
2023-11-12T14:06:23.359Z,5.31
2023-11-12T14:09:37.354Z,5.32
2023-11-12T14:12:48.508Z,5.19
2023-11-12T14:15:59.785Z,5.03
2023-11-12T14:19:12.108Z,5.05
2023-11-12T14:22:20.547Z,5.00
2023-11-12T14:25:27.840Z,4.88
2023-11-12T14:28:40.319Z,4.78
2023-11-12T14:31:47.713Z,4.74
2023-11-12T14:34:56.327Z,4.60
2023-11-12T14:38:11.967Z,4.46
2023-11-12T14:41:22.231Z,4.38
2023-11-12T14:44:34.718Z,4.38
2023-11-12T14:47:43.539Z,4.27
2023-11-12T14:50:51.446Z,4.23
2023-11-12T14:54:04.276Z,4.27
2023-11-12T14:57:24.394Z,4.33
2023-11-12T15:00:36.783Z,4.41
2023-11-12T15:03:49.199Z,4.55
2023-11-12T15:06:57.667Z,4.56
2023-11-12T15:10:04.946Z,4.63
2023-11-12T15:13:13.362Z,4.64
2023-11-12T15:16:37.258Z,4.49
2023-11-12T15:19:58.622Z,4.31
2023-11-12T15:23:06.175Z,4.25
2023-11-12T15:26:18.571Z,4.16
2023-11-12T15:29:25.867Z,4.17
2023-11-12T15:32:36.567Z,4.18
2023-11-12T15:35:43.813Z,4.17
2023-11-12T15:39:00.912Z,4.15
2023-11-12T15:42:28.633Z,4.15
2023-11-12T15:45:36.803Z,4.21
2023-11-12T15:49:07.207Z,4.24
2023-11-12T15:52:18.702Z,4.41
2023-11-12T15:55:30.830Z,4.50
2023-11-12T15:58:39.004Z,4.61
2023-11-12T16:01:46.379Z,4.62
2023-11-12T16:04:57.200Z,4.58
2023-11-12T16:08:04.600Z,4.50
2023-11-12T16:11:19.080Z,4.58
2023-11-12T16:14:26.384Z,4.63
2023-11-12T16:17:36.815Z,4.59
2023-11-12T16:20:46.996Z,4.59
2023-11-12T16:23:55.295Z,4.49
2023-11-12T16:27:09.246Z,4.40
2023-11-12T16:30:25.839Z,4.46
2023-11-12T16:33:33.937Z,4.41
2023-11-12T16:36:44.876Z,4.31
2023-11-12T16:39:54.891Z,4.14
2023-11-12T16:43:04.441Z,4.10
2023-11-12T16:46:18.111Z,4.03
2023-11-12T16:49:45.155Z,4.02
2023-11-12T16:52:58.439Z,3.95
2023-11-12T16:56:06.790Z,3.90
2023-11-12T16:59:20.218Z,3.86
2023-11-12T17:02:43.283Z,3.86
2023-11-12T17:06:22.226Z,3.82
2023-11-12T17:09:53.052Z,3.76
2023-11-12T17:13:00.315Z,3.64
2023-11-12T17:16:16.280Z,3.59
2023-11-12T17:20:03.224Z,3.57
2023-11-12T17:23:11.550Z,3.59
2023-11-12T17:26:21.599Z,3.55
2023-11-12T17:29:30.233Z,3.56
2023-11-12T17:32:48.697Z,3.62
2023-11-12T17:35:56.739Z,3.69
2023-11-12T17:39:04.521Z,3.80
2023-11-12T17:42:15.314Z,3.74
2023-11-12T17:45:24.465Z,3.76
2023-11-12T17:48:33.234Z,3.72
2023-11-12T17:51:40.551Z,3.71
2023-11-12T17:54:48.988Z,3.73
2023-11-12T17:58:18.176Z,3.75
2023-11-12T18:01:33.886Z,3.75
2023-11-12T18:04:41.586Z,3.69
2023-11-12T18:07:49.772Z,3.63
2023-11-12T18:10:58.614Z,3.58
2023-11-12T18:14:17.090Z,3.65
2023-11-12T18:17:32.429Z,3.67
2023-11-12T18:20:42.307Z,3.79
2023-11-12T18:23:49.898Z,3.78
2023-11-12T18:27:10.162Z,3.77
2023-11-12T18:30:39.825Z,3.78
2023-11-12T18:33:56.446Z,3.78
2023-11-12T18:37:14.479Z,3.79
2023-11-12T18:40:41.165Z,3.77
2023-11-12T18:44:07.060Z,3.78
2023-11-12T18:47:17.801Z,3.75
2023-11-12T18:50:38.473Z,3.73
2023-11-12T18:53:59.592Z,3.70
2023-11-12T18:57:07.987Z,3.65
2023-11-12T19:00:25.892Z,3.62
2023-11-12T19:03:36.270Z,3.60
2023-11-12T19:06:48.002Z,3.52
2023-11-12T19:09:55.653Z,3.48
2023-11-12T19:13:05.083Z,3.42
2023-11-12T19:16:13.266Z,3.42
2023-11-12T19:19:26.284Z,3.42
2023-11-12T19:22:33.783Z,3.32
2023-11-12T19:25:44.562Z,3.18
2023-11-12T19:28:52.977Z,3.10
2023-11-12T19:32:02.393Z,3.03
2023-11-12T19:35:13.107Z,2.94
2023-11-12T19:38:21.449Z,2.92
2023-11-12T19:41:29.898Z,2.87
2023-11-12T19:44:38.323Z,2.78
2023-11-12T19:47:49.450Z,2.63
2023-11-12T19:51:00.216Z,2.58
2023-11-12T19:54:08.055Z,2.54
2023-11-12T19:57:19.537Z,2.50
2023-11-12T20:00:27.720Z,2.49
2023-11-12T20:03:39.345Z,2.45
2023-11-12T20:06:49.307Z,2.46
2023-11-12T20:09:57.482Z,2.43
2023-11-12T20:13:04.782Z,2.44
2023-11-12T20:16:13.375Z,2.44
2023-11-12T20:19:21.012Z,2.44
2023-11-12T20:22:33.515Z,2.47
2023-11-12T20:25:40.847Z,2.44
2023-11-12T20:28:56.819Z,2.41
2023-11-12T20:32:15.615Z,2.37
2023-11-12T20:35:24.232Z,2.34
2023-11-12T20:38:36.207Z,2.35
2023-11-12T20:41:44.697Z,2.34
2023-11-12T20:44:52.289Z,2.39
2023-11-12T20:48:03.336Z,2.38
2023-11-12T20:51:21.834Z,2.45
2023-11-12T20:54:32.514Z,2.47
2023-11-12T20:58:00.424Z,2.50
2023-11-12T21:01:17.408Z,2.54
2023-11-12T21:04:26.246Z,2.61
2023-11-12T21:07:54.275Z,2.55
2023-11-12T21:11:25.264Z,2.61
2023-11-12T21:15:01.913Z,2.64
2023-11-12T21:18:13.210Z,2.64
2023-11-12T21:21:22.166Z,2.67
2023-11-12T21:24:29.975Z,2.70
2023-11-12T21:27:44.858Z,2.63
2023-11-12T21:30:52.637Z,2.61
2023-11-12T21:34:01.414Z,2.69
2023-11-12T21:37:09.670Z,2.69
2023-11-12T21:40:18.060Z,2.72
2023-11-12T21:43:29.041Z,2.75
2023-11-12T21:46:37.316Z,2.85
2023-11-12T21:49:47.715Z,2.88
2023-11-12T21:52:59.115Z,2.91
2023-11-12T21:56:09.051Z,2.89
2023-11-12T21:59:21.280Z,2.92
2023-11-12T22:02:30.263Z,2.92
2023-11-12T22:05:58.223Z,2.92
2023-11-12T22:09:15.085Z,2.87
2023-11-12T22:12:42.219Z,2.87
2023-11-12T22:16:00.659Z,2.89
2023-11-12T22:19:29.241Z,2.83
2023-11-12T22:22:57.372Z,2.84
2023-11-12T22:26:09.017Z,2.85
2023-11-12T22:29:16.332Z,2.80
2023-11-12T22:32:28.993Z,2.75
2023-11-12T22:35:37.096Z,2.75
2023-11-12T22:38:45.187Z,2.77
2023-11-12T22:41:59.427Z,2.82
2023-11-12T22:45:15.688Z,2.87
2023-11-12T22:48:38.238Z,2.93
2023-11-12T22:51:51.872Z,2.92
2023-11-12T22:55:08.040Z,2.95
2023-11-12T22:58:16.134Z,2.99
2023-11-12T23:01:40.095Z,2.95
2023-11-12T23:05:00.223Z,2.91
2023-11-12T23:08:28.255Z,2.94
2023-11-12T23:11:37.549Z,2.92
2023-11-12T23:14:44.808Z,2.89
2023-11-12T23:18:00.003Z,2.91
2023-11-12T23:21:11.591Z,2.95
2023-11-12T23:24:19.912Z,2.99
2023-11-12T23:27:33.722Z,3.04
2023-11-12T23:30:45.096Z,3.02
2023-11-12T23:33:56.325Z,3.02
2023-11-12T23:37:08.113Z,3.06
2023-11-12T23:40:18.011Z,3.05
2023-11-12T23:43:26.311Z,3.08
2023-11-12T23:46:33.673Z,3.07
2023-11-12T23:49:41.733Z,3.10
2023-11-12T23:53:06.093Z,3.09
2023-11-12T23:56:34.290Z,3.09
